createdAt,value
2018-07-15T00:00:23.397Z,101429.33
2018-07-15T00:05:15.822Z,101426.51
2018-07-15T00:10:08.327Z,101427.02
2018-07-15T00:15:01.068Z,101426.69
2018-07-15T00:19:53.632Z,101423.05
2018-07-15T00:24:46.235Z,101423.80
2018-07-15T00:29:38.847Z,101424.53
2018-07-15T00:34:31.397Z,101421.42
2018-07-15T00:39:23.969Z,101427.34
2018-07-15T00:44:16.559Z,101418.83
2018-07-15T00:49:09.233Z,101418.48
2018-07-15T00:54:01.765Z,101413.98
2018-07-15T00:58:54.297Z,101412.24
2018-07-15T01:03:46.885Z,101407.48
2018-07-15T01:08:39.497Z,101417.25
2018-07-15T01:13:32.094Z,101413.34
2018-07-15T01:18:24.695Z,101417.06
2018-07-15T01:23:17.316Z,101413.84
2018-07-15T01:28:09.978Z,101411.33
2018-07-15T01:33:02.604Z,101410.22
2018-07-15T01:37:55.257Z,101406.06
2018-07-15T01:42:47.817Z,101406.52
2018-07-15T01:47:40.382Z,101406.73
2018-07-15T01:52:32.999Z,101404.17
2018-07-15T01:57:25.599Z,101403.84
2018-07-15T02:02:18.254Z,101405.77
2018-07-15T02:07:10.873Z,101403.84
2018-07-15T02:12:03.434Z,101409.56
2018-07-15T02:16:55.966Z,101408.49
2018-07-15T02:21:48.576Z,101397.67
2018-07-15T02:26:41.150Z,101396.80
2018-07-15T02:31:33.855Z,101397.83
2018-07-15T02:36:26.384Z,101402.34
2018-07-15T02:41:18.976Z,101400.05
2018-07-15T02:46:11.673Z,101401.98
2018-07-15T02:51:04.290Z,101404.38
2018-07-15T02:55:56.846Z,101401.02
2018-07-15T03:00:49.465Z,101396.52
2018-07-15T03:05:42.084Z,101395.36
2018-07-15T03:10:34.646Z,101395.24
2018-07-15T03:15:27.273Z,101401.23
2018-07-15T03:20:19.786Z,101398.45
2018-07-15T03:25:12.438Z,101396.19
2018-07-15T03:30:05.015Z,101408.16
2018-07-15T03:34:57.568Z,101409.17
2018-07-15T03:39:50.181Z,101410.82
2018-07-15T03:44:42.972Z,101408.39
2018-07-15T03:49:35.587Z,101404.38
2018-07-15T03:54:28.080Z,101411.55
2018-07-15T03:59:20.662Z,101416.25
2018-07-15T04:04:13.241Z,101411.64
2018-07-15T04:09:06.199Z,101414.11
2018-07-15T04:13:58.795Z,101423.05
2018-07-15T04:18:51.362Z,101419.71
2018-07-15T04:23:44.191Z,101419.95
2018-07-15T04:28:36.787Z,101423.77
2018-07-15T04:33:29.403Z,101423.20
2018-07-15T04:38:21.989Z,101419.89
2018-07-15T04:43:14.548Z,101421.21
2018-07-15T04:48:07.201Z,101430.14
2018-07-15T04:52:59.774Z,101431.55
2018-07-15T04:57:52.326Z,101429.12
2018-07-15T05:02:45.948Z,101430.81
2018-07-15T05:07:38.517Z,101433.05
2018-07-15T05:12:31.138Z,101435.85
2018-07-15T05:17:23.734Z,101442.53
2018-07-15T05:22:16.359Z,101449.96
2018-07-15T05:27:08.909Z,101452.97
2018-07-15T05:32:01.590Z,101452.77
2018-07-15T05:36:54.121Z,101445.77
2018-07-15T05:41:46.681Z,101456.45
2018-07-15T05:46:39.400Z,101453.77
2018-07-15T05:51:32.051Z,101455.14
2018-07-15T05:56:24.639Z,101458.47
2018-07-15T06:01:17.223Z,101459.14
2018-07-15T06:06:09.872Z,101457.61
2018-07-15T06:11:02.542Z,101459.06
2018-07-15T06:15:55.106Z,101454.52
2018-07-15T06:20:47.836Z,101453.48
2018-07-15T06:25:40.502Z,101445.39
2018-07-15T06:30:33.073Z,101458.79
2018-07-15T06:35:25.638Z,101462.94
2018-07-15T06:40:18.226Z,101453.48
2018-07-15T06:45:10.970Z,101455.23
2018-07-15T06:50:03.675Z,101453.72
2018-07-15T06:54:56.336Z,101452.23
2018-07-15T06:59:48.938Z,101451.77
2018-07-15T07:04:41.847Z,101449.95
2018-07-15T07:09:34.338Z,101444.05
2018-07-15T07:14:26.936Z,101437.82
2018-07-15T07:19:19.586Z,101442.80
2018-07-15T07:24:12.122Z,101440.58
2018-07-15T07:29:04.722Z,101436.86
2018-07-15T07:33:57.305Z,101436.63
2018-07-15T07:38:49.976Z,101432.82
2018-07-15T07:43:42.546Z,101428.30
2018-07-15T07:48:35.155Z,101428.30
2018-07-15T07:53:28.006Z,101429.44
2018-07-15T07:58:20.570Z,101422.20
2018-07-15T08:03:13.156Z,101418.59
2018-07-15T08:08:05.782Z,101413.55
2018-07-15T08:12:58.408Z,101411.75
2018-07-15T08:17:51.208Z,101420.77
2018-07-15T08:22:43.802Z,101414.59
2018-07-15T08:27:36.375Z,101416.84
2018-07-15T08:32:29.110Z,101414.47
2018-07-15T08:37:21.737Z,101408.76
2018-07-15T08:42:14.338Z,101410.72
2018-07-15T08:47:06.914Z,101412.95
2018-07-15T08:52:01.505Z,101407.87
2018-07-15T08:56:54.122Z,101415.56
2018-07-15T09:01:46.787Z,101418.60
2018-07-15T09:06:39.371Z,101411.52
2018-07-15T09:11:31.926Z,101412.83
2018-07-15T09:16:24.536Z,101413.02
2018-07-15T09:21:17.111Z,101410.63
2018-07-15T09:26:09.675Z,101409.58
2018-07-15T09:31:02.272Z,101415.77
2018-07-15T09:35:54.827Z,101417.41
2018-07-15T09:40:47.418Z,101419.17
2018-07-15T09:45:39.932Z,101417.01
2018-07-15T09:50:32.573Z,101402.70
2018-07-15T09:55:25.198Z,101401.46
2018-07-15T10:00:23.680Z,101390.38
2018-07-15T10:05:16.531Z,101395.70
2018-07-15T10:10:09.118Z,101398.00
2018-07-15T10:15:01.742Z,101395.82
2018-07-15T10:19:54.478Z,101394.95
2018-07-15T10:24:47.203Z,101398.86
2018-07-15T10:29:39.783Z,101391.36
2018-07-15T10:34:32.610Z,101390.63
2018-07-15T10:39:25.405Z,101374.91
2018-07-15T10:44:17.986Z,101386.56
2018-07-15T10:49:10.629Z,101374.04
2018-07-15T10:54:03.418Z,101374.53
2018-07-15T10:58:56.067Z,101369.06
2018-07-15T11:03:48.742Z,101364.66
2018-07-15T11:08:41.259Z,101357.64
2018-07-15T11:13:33.819Z,101349.48
2018-07-15T11:18:26.498Z,101341.12
2018-07-15T11:23:19.071Z,101347.12
2018-07-15T11:28:11.629Z,101346.59
2018-07-15T11:33:04.194Z,101338.92
2018-07-15T11:37:56.777Z,101339.14
2018-07-15T11:42:49.448Z,101336.46
2018-07-15T11:47:42.002Z,101337.95
2018-07-15T11:52:34.632Z,101334.28
2018-07-15T11:57:27.229Z,101323.92
2018-07-15T12:02:19.819Z,101323.37
2018-07-15T12:07:12.487Z,101319.09
2018-07-15T12:12:05.027Z,101302.70
2018-07-15T12:16:57.815Z,101300.70
2018-07-15T12:21:50.398Z,101299.76
2018-07-15T12:26:43.130Z,101297.63
2018-07-15T12:31:35.880Z,101298.86
2018-07-15T12:36:28.463Z,101282.09
2018-07-15T12:41:21.142Z,101288.36
2018-07-15T12:46:13.748Z,101285.75
2018-07-15T12:51:06.330Z,101279.79
2018-07-15T12:55:59.024Z,101273.55
2018-07-15T13:00:51.655Z,101260.48
2018-07-15T13:05:44.246Z,101267.84
2018-07-15T13:10:36.895Z,101259.30
2018-07-15T13:15:29.484Z,101263.19
2018-07-15T13:20:22.805Z,101251.66
2018-07-15T13:25:15.361Z,101241.97
2018-07-15T13:30:07.991Z,101250.18
2018-07-15T13:35:00.610Z,101248.92
2018-07-15T13:39:53.221Z,101244.52
2018-07-15T13:44:45.751Z,101232.73
2018-07-15T13:49:38.346Z,101234.92
2018-07-15T13:54:30.889Z,101234.46
2018-07-15T13:59:23.436Z,101238.66
2018-07-15T14:04:16.088Z,101230.37
2018-07-15T14:09:08.653Z,101226.16
2018-07-15T14:14:01.227Z,101215.91
2018-07-15T14:18:53.827Z,101213.95
2018-07-15T14:23:46.381Z,101208.48
2018-07-15T14:28:38.970Z,101203.61
2018-07-15T14:33:31.760Z,101195.84
2018-07-15T14:38:24.375Z,101196.56
2018-07-15T14:43:16.983Z,101185.91
2018-07-15T14:48:09.566Z,101180.92
2018-07-15T14:53:02.163Z,101177.19
2018-07-15T14:57:54.685Z,101168.86
2018-07-15T15:02:47.275Z,101161.27
2018-07-15T15:07:39.815Z,101165.66
2018-07-15T15:12:32.449Z,101166.38
2018-07-15T15:17:25.024Z,101157.78
2018-07-15T15:22:17.687Z,101162.39
2018-07-15T15:27:10.291Z,101157.73
2018-07-15T15:32:02.928Z,101155.05
2018-07-15T15:36:55.527Z,101150.48
2018-07-15T15:41:48.092Z,101143.38
2018-07-15T15:46:40.731Z,101136.45
2018-07-15T15:51:33.314Z,101128.84
2018-07-15T15:56:26.015Z,101125.09
2018-07-15T16:01:18.606Z,101121.42
2018-07-15T16:06:11.197Z,101119.89
2018-07-15T16:11:03.772Z,101106.05
2018-07-15T16:15:56.287Z,101105.96
2018-07-15T16:20:49.579Z,101109.19
2018-07-15T16:25:42.127Z,101105.13
2018-07-15T16:30:34.703Z,101111.23
2018-07-15T16:35:27.387Z,101101.39
2018-07-15T16:40:19.934Z,101103.32
2018-07-15T16:45:12.498Z,101107.56
2018-07-15T16:50:05.222Z,101107.61
2018-07-15T16:54:57.920Z,101103.16
2018-07-15T16:59:50.461Z,101101.59
2018-07-15T17:04:43.047Z,101098.52
2018-07-15T17:09:35.617Z,101093.31
2018-07-15T17:14:28.383Z,101095.31
2018-07-15T17:19:20.998Z,101097.30
2018-07-15T17:24:13.614Z,101095.44
2018-07-15T17:29:06.202Z,101100.73
2018-07-15T17:33:58.810Z,101101.81
2018-07-15T17:38:51.446Z,101100.12
2018-07-15T17:43:44.213Z,101102.50
2018-07-15T17:48:36.875Z,101100.72
2018-07-15T17:53:29.501Z,101096.52
2018-07-15T17:58:22.079Z,101101.31
2018-07-15T18:03:14.666Z,101092.22
2018-07-15T18:08:07.267Z,101096.92
2018-07-15T18:12:59.990Z,101101.80
2018-07-15T18:17:52.604Z,101102.14
2018-07-15T18:22:45.218Z,101101.73
2018-07-15T18:27:37.786Z,101101.56
2018-07-15T18:32:30.390Z,101107.84
2018-07-15T18:37:23.146Z,101113.62
2018-07-15T18:42:15.846Z,101121.56
2018-07-15T18:47:08.435Z,101116.62
2018-07-15T18:52:01.130Z,101121.33
2018-07-15T18:56:53.766Z,101122.75
2018-07-15T19:01:46.319Z,101131.09
2018-07-15T19:06:38.907Z,101131.83
2018-07-15T19:11:31.706Z,101141.13
2018-07-15T19:16:24.298Z,101143.05
2018-07-15T19:21:16.940Z,101143.28
2018-07-15T19:26:09.547Z,101146.34
2018-07-15T19:31:02.108Z,101144.78
2018-07-15T19:35:54.658Z,101147.81
2018-07-15T19:40:47.249Z,101152.48
2018-07-15T19:45:39.891Z,101163.52
2018-07-15T19:50:32.532Z,101160.78
2018-07-15T19:55:25.109Z,101157.73
2018-07-15T20:00:17.659Z,101153.91
2018-07-15T20:05:10.264Z,101152.45
2018-07-15T20:10:02.874Z,101156.83
2018-07-15T20:14:55.527Z,101151.63
2018-07-15T20:19:48.101Z,101154.31
2018-07-15T20:24:40.759Z,101161.59
2018-07-15T20:29:33.319Z,101153.02
2018-07-15T20:34:25.985Z,101149.07
2018-07-15T20:39:18.416Z,101148.55
2018-07-15T20:44:10.977Z,101148.77
2018-07-15T20:49:03.581Z,101153.41
2018-07-15T20:53:56.215Z,101153.37
2018-07-15T20:58:48.789Z,101159.33
2018-07-15T21:03:41.453Z,101160.05
2018-07-15T21:08:34.116Z,101159.64
2018-07-15T21:13:26.817Z,101160.28
2018-07-15T21:18:19.387Z,101157.06
2018-07-15T21:23:11.997Z,101159.84
2018-07-15T21:28:04.858Z,101161.52
2018-07-15T21:32:57.357Z,101163.75
2018-07-15T21:37:50.019Z,101166.80
2018-07-15T21:42:42.740Z,101162.23
2018-07-15T21:47:35.369Z,101170.02
2018-07-15T21:52:27.972Z,101176.22
2018-07-15T21:57:20.526Z,101183.77
2018-07-15T22:02:13.624Z,101189.14
2018-07-15T22:07:24.031Z,101181.53
2018-07-15T22:12:16.625Z,101184.64
2018-07-15T22:17:09.195Z,101191.56
2018-07-15T22:22:01.865Z,101194.77
2018-07-15T22:26:54.426Z,101191.06
2018-07-15T22:31:47.070Z,101196.37
2018-07-15T22:36:39.714Z,101196.98
2018-07-15T22:41:32.274Z,101192.41
2018-07-15T22:46:24.866Z,101191.67
2018-07-15T22:51:17.390Z,101199.99
2018-07-15T22:56:10.038Z,101194.27
2018-07-15T23:01:02.712Z,101199.31
2018-07-15T23:06:12.959Z,101206.56
2018-07-15T23:11:05.511Z,101203.39
2018-07-15T23:15:58.106Z,101200.98
2018-07-15T23:20:51.253Z,101206.84
2018-07-15T23:25:43.915Z,101189.95
2018-07-15T23:30:37.566Z,101182.92
2018-07-15T23:35:30.461Z,101183.80
2018-07-15T23:40:23.158Z,101194.03
2018-07-15T23:45:15.732Z,101186.17
2018-07-15T23:50:08.394Z,101195.52
2018-07-15T23:55:01.098Z,101194.77
2018-07-15T23:59:53.839Z,101202.80
